Time;durP1;ratioP1;P1;durP2;ratioP2;P2;SDS_P1;SDS_P2;PMS_P1;PMS_P2;Temp;Humidity;BMP_temperature;BMP_pressure;BME280_temperature;BME280_humidity;BME280_pressure;Samples;Min_cycle;Max_cycle;Signal;HPM_P1;HPM_P2
2023/10/11 00:00:39;;;;;;;7.75;5.88;;;;;;;16.04;85.38;101295.47;5044650;28;20051;-69
2023/10/11 00:03:52;;;;;;;8.02;5.40;;;;;;;16.08;85.37;101290.78;5044967;28;20538;-69
2023/10/11 00:06:04;;;;;;;;;;;;;;;16.08;84.60;101290.78;5036515;28;20268;-70
2023/10/11 00:08:29;;;;;;;9.07;5.80;;;;;;;16.07;85.28;101294.44;5039907;28;19947;-70
2023/10/11 00:10:58;;;;;;;8.95;5.68;;;;;;;16.08;84.80;101296.16;5044823;28;20463;-70
2023/10/11 00:13:32;;;;;;;10.35;6.60;;;;;;;16.12;84.42;101285.09;5044393;28;20017;-69
2023/10/11 00:15:59;;;;;;;9.95;5.82;;;;;;;16.09;84.68;101293.38;5044361;28;20033;-69
2023/10/11 00:18:26;;;;;;;9.48;5.90;;;;;;;16.04;85.61;101291.94;5044081;28;20028;-70
2023/10/11 00:20:56;;;;;;;9.85;6.07;;;;;;;16.08;85.14;101288.09;5044235;28;20028;-69
2023/10/11 00:23:23;;;;;;;8.45;5.20;;;;;;;16.06;84.99;101282.84;5042344;28;20108;-70
2023/10/11 00:25:50;;;;;;;7.10;5.43;;;;;;;16.04;84.91;101283.88;5044352;28;20039;-69
2023/10/11 00:28:17;;;;;;;8.73;6.00;;;;;;;16.04;84.80;101278.50;5044010;28;20127;-72
2023/10/11 00:30:46;;;;;;;9.60;5.60;;;;;;;16.04;84.88;101283.88;5043633;28;20032;-70
2023/10/11 00:33:13;;;;;;;8.90;5.22;;;;;;;16.03;85.08;101282.16;5044666;28;20021;-71
2023/10/11 00:35:48;;;;;;;9.68;5.72;;;;;;;16.03;84.80;101277.66;5044100;28;20029;-70
2023/10/11 00:38:18;;;;;;;8.63;6.10;;;;;;;16.00;84.69;101285.91;5034293;28;20025;-70
2023/10/11 00:40:46;;;;;;;9.07;6.03;;;;;;;15.99;84.74;101286.88;5042680;28;20362;-70
2023/10/11 00:43:16;;;;;;;8.30;5.53;;;;;;;15.99;84.50;101283.34;5044466;28;20025;-70
2023/10/11 00:45:43;;;;;;;9.85;6.38;;;;;;;15.98;84.52;101281.63;5044110;28;20390;-69
2023/10/11 00:48:11;;;;;;;8.88;6.10;;;;;;;16.01;84.37;101284.09;5043803;28;20041;-68
2023/10/11 00:50:37;;;;;;;9.35;6.00;;;;;;;15.97;84.11;101277.19;5037648;28;20032;-69
2023/10/11 00:53:03;;;;;;;7.65;5.57;;;;;;;15.94;84.11;101279.13;5042941;28;20323;-69
2023/10/11 00:55:29;;;;;;;8.38;5.82;;;;;;;15.89;84.31;101275.03;5042946;28;20032;-70
2023/10/11 00:57:56;;;;;;;10.32;6.07;;;;;;;15.91;83.96;101276.66;5043415;28;20105;-69
2023/10/11 01:00:25;;;;;;;8.77;5.57;;;;;;;15.84;83.55;101275.34;5043767;28;20047;-70
2023/10/11 01:02:52;;;;;;;7.93;5.65;;;;;;;15.81;83.91;101278.22;5042732;28;20033;-70
2023/10/11 01:05:21;;;;;;;8.45;5.95;;;;;;;15.79;83.70;101277.44;5043904;28;20043;-70
2023/10/11 01:07:46;;;;;;;7.75;5.97;;;;;;;15.74;83.95;101276.03;5041558;28;20411;-69
2023/10/11 01:10:13;;;;;;;9.80;6.32;;;;;;;15.71;83.73;101271.72;5043665;28;20487;-69
2023/10/11 01:12:41;;;;;;;7.70;5.45;;;;;;;15.62;84.04;101256.19;5041691;28;20037;-69
2023/10/11 01:15:11;;;;;;;8.68;5.93;;;;;;;15.60;84.39;101268.88;5041892;28;20036;-69
2023/10/11 01:17:38;;;;;;;9.15;5.57;;;;;;;15.57;84.26;101263.69;5042204;28;20029;-69
2023/10/11 01:20:13;;;;;;;8.13;5.88;;;;;;;15.58;83.68;101268.09;5043454;28;20043;-69
2023/10/11 01:22:40;;;;;;;15.20;5.65;;;;;;;15.48;84.28;101258.94;5040718;28;20040;-69
2023/10/11 01:25:06;;;;;;;8.00;5.55;;;;;;;15.49;84.39;101263.34;5074273;28;20351;-70
2023/10/11 01:27:32;;;;;;;8.98;5.68;;;;;;;15.43;84.17;101275.34;5039771;28;20070;-70
2023/10/11 01:29:57;;;;;;;7.90;5.53;;;;;;;15.41;84.00;101263.81;5042836;28;20033;-70
2023/10/11 01:32:23;;;;;;;7.95;5.80;;;;;;;15.32;84.64;101265.28;5035580;28;20029;-70
2023/10/11 01:34:48;;;;;;;8.43;5.70;;;;;;;15.24;84.95;101254.19;5039016;28;20036;-71
2023/10/11 01:37:14;;;;;;;10.35;6.00;;;;;;;15.24;85.34;101253.31;5036672;28;20376;-70
2023/10/11 01:39:39;;;;;;;10.00;5.65;;;;;;;15.22;85.43;101249.88;5041230;28;20425;-70
2023/10/11 01:42:04;;;;;;;8.63;6.00;;;;;;;15.16;85.49;101249.28;5042517;28;20094;-70
2023/10/11 01:44:31;;;;;;;7.32;5.38;;;;;;;15.15;85.77;101247.59;5044300;28;20328;-70
2023/10/11 01:46:57;;;;;;;9.77;5.55;;;;;;;15.16;85.49;101249.28;5041989;28;20056;-69
2023/10/11 01:49:23;;;;;;;9.45;5.55;;;;;;;15.15;85.45;101238.69;5030705;28;20492;-70
2023/10/11 01:51:48;;;;;;;9.40;5.82;;;;;;;15.09;86.00;101236.38;5036661;28;20284;-70
2023/10/11 01:54:18;;;;;;;10.02;6.00;;;;;;;15.03;86.13;101247.50;5042961;28;20529;-69
2023/10/11 01:56:45;;;;;;;12.80;6.03;;;;;;;15.03;86.04;101243.00;5039882;28;20041;-69
2023/10/11 01:59:12;;;;;;;7.95;5.38;;;;;;;14.99;86.21;101232.56;5040639;28;20288;-69
2023/10/11 02:01:41;;;;;;;8.30;5.18;;;;;;;14.94;86.53;101230.19;5044048;28;20037;-70
2023/10/11 02:04:17;;;;;;;8.27;5.47;;;;;;;14.95;86.62;101234.56;5032485;28;20562;-69
2023/10/11 02:06:43;;;;;;;13.93;5.95;;;;;;;14.92;86.51;101235.66;5041248;28;20033;-70
2023/10/11 02:09:09;;;;;;;9.38;5.28;;;;;;;14.87;86.45;101221.66;5041987;28;20032;-69
2023/10/11 02:11:36;;;;;;;9.85;5.93;;;;;;;14.84;86.91;101227.22;5039942;28;20580;-70
2023/10/11 02:14:01;;;;;;;8.00;5.35;;;;;;;14.82;86.95;101225.59;5039574;28;20156;-69
2023/10/11 02:16:32;;;;;;;10.32;5.78;;;;;;;14.77;87.03;101220.53;5038827;28;20549;-70
2023/10/11 02:19:00;;;;;;;8.25;5.50;;;;;;;14.76;87.64;101218.81;5038410;28;20041;-69
2023/10/11 02:21:29;;;;;;;7.68;5.53;;;;;;;14.75;86.96;101210.84;5040928;28;20032;-70
2023/10/11 02:23:56;;;;;;;8.52;6.10;;;;;;;14.77;87.33;101211.63;5032539;28;20111;-70
2023/10/11 02:26:28;;;;;;;8.18;5.30;;;;;;;14.75;87.04;101205.47;5040641;28;20017;-70
2023/10/11 02:28:53;;;;;;;10.55;6.07;;;;;;;14.72;87.63;101209.22;5037240;28;20348;-70
2023/10/11 02:31:24;;;;;;;10.00;5.57;;;;;;;14.67;87.65;101201.47;5038633;28;20056;-69
2023/10/11 02:34:03;;;;;;;10.10;6.00;;;;;;;14.63;88.04;101199.94;5022889;28;20067;-69
2023/10/11 02:36:34;;;;;;;10.55;5.78;;;;;;;14.58;88.24;101203.84;5037267;28;20025;-69
2023/10/11 02:39:00;;;;;;;8.55;5.60;;;;;;;14.53;88.55;101196.09;5035234;28;20033;-68
2023/10/11 02:41:25;;;;;;;8.70;5.60;;;;;;;14.54;88.39;101203.19;5040558;28;20103;-70
2023/10/11 02:43:52;;;;;;;7.63;5.43;;;;;;;14.52;88.77;101201.56;5039240;28;20082;-68
2023/10/11 02:46:23;;;;;;;7.85;6.03;;;;;;;14.47;89.01;101199.13;5036712;28;20107;-69
2023/10/11 02:49:05;;;;;;;7.32;6.07;;;;;;;14.50;88.76;101198.97;5035203;28;20033;-70
2023/10/11 02:51:33;;;;;;;11.18;6.13;;;;;;;14.49;88.67;101197.25;5031857;28;20422;-69
2023/10/11 02:54:05;;;;;;;8.30;5.35;;;;;;;14.43;88.96;101200.28;5034004;28;20422;-69
2023/10/11 02:56:46;;;;;;;8.93;6.18;;;;;;;14.39;89.73;101204.09;5040223;28;20036;-70
2023/10/11 02:59:25;;;;;;;9.85;6.72;;;;;;;14.37;89.19;101204.19;5037428;28;20032;-71
2023/10/11 03:02:01;;;;;;;8.98;6.15;;;;;;;14.35;90.22;101205.25;5038133;28;20320;-70
2023/10/11 03:04:28;;;;;;;8.05;6.13;;;;;;;14.29;90.24;101198.44;5036895;28;20037;-70
2023/10/11 03:06:56;;;;;;;10.25;5.80;;;;;;;14.25;89.98;101193.34;5036304;28;20033;-70
2023/10/11 03:09:26;;;;;;;8.52;5.63;;;;;;;14.28;90.49;101195.84;5037642;28;20037;-70
2023/10/11 03:12:05;;;;;;;11.32;6.03;;;;;;;14.22;90.43;101185.53;5040290;28;20247;-69
2023/10/11 03:14:38;;;;;;;9.80;6.60;;;;;;;14.26;90.67;101197.78;5037557;28;20083;-69
2023/10/11 03:17:06;;;;;;;7.87;5.70;;;;;;;14.26;90.89;101187.91;5041370;28;20037;-69
2023/10/11 03:19:34;;;;;;;10.38;5.93;;;;;;;14.24;90.98;101195.16;5041989;28;20021;-70
2023/10/11 03:22:02;;;;;;;8.65;5.88;;;;;;;14.16;91.21;101192.09;5040141;28;20040;-69
2023/10/11 03:24:33;;;;;;;8.27;5.97;;;;;;;14.17;91.05;101188.47;5043603;28;20048;-70
2023/10/11 03:27:00;;;;;;;10.07;6.05;;;;;;;14.15;91.81;101187.69;5044539;28;20104;-70
2023/10/11 03:29:30;;;;;;;8.88;6.20;;;;;;;14.13;91.51;101181.59;5037047;28;20082;-70
2023/10/11 03:31:55;;;;;;;8.20;5.53;;;;;;;14.08;91.81;101168.47;5036605;28;20119;-69
2023/10/11 03:34:29;;;;;;;9.15;6.35;;;;;;;14.06;92.59;101175.72;5043558;28;20036;-69
2023/10/11 03:36:58;;;;;;;8.10;5.97;;;;;;;14.03;92.34;101181.25;5041911;28;20037;-69
2023/10/11 03:44:40;;;;;;;10.27;6.15;;;;;;;13.97;92.70;101160.25;5042615;28;20032;-71
2023/10/11 03:47:08;;;;;;;10.18;6.00;;;;;;;14.00;92.93;101177.91;5039590;28;20112;-70
2023/10/11 03:52:20;;;;;;;11.35;6.53;;;;;;;13.90;93.74;101175.78;5035181;28;20029;-69
2023/10/11 03:54:46;;;;;;;8.50;6.03;;;;;;;13.88;93.63;101171.50;5043891;28;20403;-69
2023/10/11 03:57:12;;;;;;;8.82;6.32;;;;;;;13.86;94.13;101171.56;5046212;28;20025;-70
2023/10/11 03:59:39;;;;;;;8.98;6.53;;;;;;;13.83;94.36;101177.09;5046048;28;20052;-69
2023/10/11 04:02:10;;;;;;;8.90;6.43;;;;;;;13.84;94.48;101186.00;5044917;28;20041;-69
2023/10/11 04:04:39;;;;;;;9.95;6.35;;;;;;;13.83;94.50;101185.13;5042008;28;20499;-70
2023/10/11 04:07:05;;;;;;;10.82;6.65;;;;;;;13.78;94.81;101179.19;5041760;28;20037;-70
2023/10/11 04:12:03;;;;;;;10.75;6.72;;;;;;;13.78;94.93;101178.31;5045382;28;20047;-70
2023/10/11 04:14:44;;;;;;;11.32;6.80;;;;;;;13.74;95.13;101177.63;5045024;28;20029;-70
2023/10/11 04:17:26;;;;;;;10.55;7.00;;;;;;;13.71;95.35;101177.84;5046010;28;20021;-70
2023/10/11 04:22:49;;;;;;;8.77;6.68;;;;;;;13.71;95.45;101172.50;5039865;28;20094;-70
2023/10/11 04:25:17;;;;;;;8.32;6.80;;;;;;;13.72;95.38;101149.28;5038159;28;20479;-70
2023/10/11 04:30:18;;;;;;;9.10;6.50;;;;;;;13.70;95.89;101152.88;5046364;28;20050;-71
2023/10/11 04:32:52;;;;;;;6.88;6.03;;;;;;;13.72;95.88;101149.28;5033825;28;20352;-69
2023/10/11 04:35:36;;;;;;;9.55;6.57;;;;;;;13.66;96.00;101147.81;5041758;28;20053;-68
2023/10/11 04:38:02;;;;;;;11.02;6.57;;;;;;;13.71;96.02;101148.41;5038829;28;20024;-70
2023/10/11 04:45:45;;;;;;;10.55;6.85;;;;;;;13.67;96.54;101154.91;5040978;28;20044;-70
2023/10/11 04:48:14;;;;;;;11.00;6.93;;;;;;;13.74;96.11;101158.06;5042753;28;20040;-70
2023/10/11 04:50:45;;;;;;;9.38;6.88;;;;;;;13.72;96.28;101170.69;5043546;28;20037;-72
2023/10/11 04:53:18;;;;;;;8.77;6.90;;;;;;;13.68;96.96;101164.63;5040311;28;20112;-71
2023/10/11 04:55:58;;;;;;;7.78;6.72;;;;;;;13.64;97.42;101166.63;5040082;28;20056;-70
2023/10/11 04:59:06;;;;;;;9.82;7.35;;;;;;;13.64;97.52;101163.94;5035333;28;20028;-70
2023/10/11 05:01:23;;;;;;;9.63;6.95;;;;;;;13.67;97.59;101165.59;5039268;28;20048;-70
2023/10/11 05:03:58;;;;;;;10.32;7.25;;;;;;;13.69;97.16;101145.81;5037950;28;20039;-72
2023/10/11 05:06:31;;;;;;;9.00;6.53;;;;;;;13.70;97.41;101154.69;5044398;28;20040;-69
2023/10/11 05:09:04;;;;;;;10.88;7.50;;;;;;;13.71;97.71;101159.13;5044880;28;20354;-70
2023/10/11 05:11:36;;;;;;;11.23;8.50;;;;;;;13.70;97.68;101165.41;5044100;28;20036;-69
2023/10/11 05:14:26;;;;;;;10.80;7.15;;;;;;;13.68;97.85;101160.16;5038692;28;20078;-69
2023/10/11 05:16:58;;;;;;;10.82;7.40;;;;;;;13.62;98.28;101168.50;5043884;28;20029;-70
2023/10/11 05:19:26;;;;;;;7.95;6.72;;;;;;;13.65;98.72;101170.16;5039838;28;20468;-70
2023/10/11 05:21:55;;;;;;;13.38;7.38;;;;;;;13.61;98.92;101169.47;5043558;28;20341;-70
2023/10/11 05:32:50;;;;;;;9.23;7.10;;;;;;;13.63;99.09;101177.44;5039046;28;20407;-70
2023/10/11 05:51:31;;;;;;;12.50;8.13;;;;;;;13.64;100.00;101189.84;5032695;28;20091;-70
2023/10/11 05:54:02;;;;;;;12.10;8.30;;;;;;;13.68;99.99;101181.53;5033404;28;20029;-69
2023/10/11 05:56:33;;;;;;;9.52;7.70;;;;;;;13.65;99.97;101170.16;5031567;28;20033;-70
2023/10/11 05:59:03;;;;;;;10.68;7.78;;;;;;;13.65;100.00;101178.19;5040755;28;20087;-70
2023/10/11 06:01:30;;;;;;;13.10;7.93;;;;;;;13.64;100.00;101171.13;5033570;28;20025;-69
2023/10/11 06:03:56;;;;;;;11.13;7.68;;;;;;;13.72;99.76;101174.22;5035260;28;20094;-70
2023/10/11 06:06:32;;;;;;;14.50;9.32;;;;;;;13.74;100.00;101190.16;5041682;28;20037;-71
2023/10/11 06:08:58;;;;;;;10.40;8.55;;;;;;;13.72;100.00;101195.59;5037891;28;20084;-69
2023/10/11 06:11:29;;;;;;;12.77;8.20;;;;;;;13.77;99.81;101190.84;5034830;28;20058;-70
2023/10/11 06:13:55;;;;;;;9.98;7.15;;;;;;;13.78;100.00;101197.06;5035654;28;20033;-70
2023/10/11 06:16:22;;;;;;;12.70;7.53;;;;;;;13.73;100.00;101185.75;5036656;28;20025;-70
2023/10/11 06:18:57;;;;;;;12.10;7.70;;;;;;;13.78;99.71;101192.56;5040734;28;20056;-70
2023/10/11 06:21:30;;;;;;;10.65;7.57;;;;;;;13.79;99.94;101183.56;5037014;28;20029;-69
2023/10/11 06:24:05;;;;;;;9.98;7.57;;;;;;;13.88;99.21;101175.03;5038846;28;20025;-70
2023/10/11 06:29:08;;;;;;;10.93;7.43;;;;;;;13.94;98.90;101169.28;5040137;28;20314;-69
2023/10/11 06:31:43;;;;;;;11.13;7.45;;;;;;;13.94;98.75;101163.09;5035487;28;20032;-70
2023/10/11 06:34:15;;;;;;;12.52;7.93;;;;;;;14.01;98.42;101166.28;5036316;28;20099;-69
2023/10/11 06:36:51;;;;;;;10.88;7.25;;;;;;;14.04;98.35;101161.56;5037305;28;20033;-69
2023/10/11 06:42:46;;;;;;;11.20;7.80;;;;;;;14.10;97.96;101165.72;5036760;28;20805;-69
2023/10/11 06:45:01;;;;;;;13.27;7.72;;;;;;;14.14;97.48;101173.47;5037039;28;20037;-69
2023/10/11 06:47:36;;;;;;;11.50;7.10;;;;;;;14.19;97.29;101181.22;5032003;28;20182;-70
2023/10/11 06:50:11;;;;;;;10.35;7.18;;;;;;;14.19;97.22;101174.03;5037682;28;20017;-70
2023/10/11 06:52:43;;;;;;;11.32;7.38;;;;;;;14.26;96.69;101182.56;5036114;28;20046;-70
2023/10/11 06:57:41;;;;;;;11.05;7.22;;;;;;;14.34;96.71;101185.63;5035671;28;20489;-69
2023/10/11 07:03:09;;;;;;;10.80;7.72;;;;;;;14.47;95.95;101179.53;5036851;28;20045;-70
2023/10/11 07:05:46;;;;;;;9.45;7.30;;;;;;;14.52;95.70;101177.47;5035298;28;20025;-69
2023/10/11 07:08:18;;;;;;;11.95;7.57;;;;;;;14.55;95.26;101179.97;5035297;28;20035;-70
2023/10/11 07:11:00;;;;;;;11.65;7.53;;;;;;;14.61;95.13;101185.78;5036316;28;20086;-69
2023/10/11 07:13:30;;;;;;;10.80;7.20;;;;;;;14.69;94.80;101190.66;5038728;28;20017;-68
2023/10/11 07:16:07;;;;;;;10.63;7.28;;;;;;;14.79;93.61;101191.78;5039684;28;20028;-69
2023/10/11 07:18:39;;;;;;;12.13;8.10;;;;;;;14.85;94.18;101201.28;5035584;28;20160;-68
2023/10/11 07:21:13;;;;;;;10.05;7.35;;;;;;;14.92;93.52;101211.53;5038712;28;20037;-69
2023/10/11 07:26:23;;;;;;;13.32;7.43;;;;;;;15.02;92.78;101216.28;5035052;28;20282;-68
2023/10/11 07:28:51;;;;;;;10.27;7.70;;;;;;;15.05;92.78;101225.00;5031304;28;20037;-69
2023/10/11 07:31:37;;;;;;;12.32;8.13;;;;;;;15.04;93.08;101225.94;5031496;28;20033;-69
2023/10/11 07:34:06;;;;;;;11.23;7.75;;;;;;;15.10;92.71;101228.25;5040589;28;20112;-67
2023/10/11 07:36:38;;;;;;;12.43;7.72;;;;;;;15.16;92.95;101232.34;5035491;28;20466;-68
2023/10/11 07:41:48;;;;;;;11.15;7.03;;;;;;;15.31;92.57;101241.25;5032294;28;20052;-69
2023/10/11 07:44:18;;;;;;;12.05;7.45;;;;;;;15.41;92.26;101237.00;5040947;28;20479;-68
2023/10/11 07:46:44;;;;;;;12.75;7.90;;;;;;;15.47;91.49;101243.78;5034671;28;20052;-69
2023/10/11 07:49:14;;;;;;;14.48;7.50;;;;;;;15.58;90.97;101241.25;5036090;28;20255;-69
2023/10/11 07:51:40;;;;;;;12.27;8.18;;;;;;;15.69;90.83;101233.41;5033146;28;20025;-70
2023/10/11 07:54:07;;;;;;;10.73;8.05;;;;;;;15.77;90.91;101228.41;5036535;28;20024;-69
2023/10/11 07:56:36;;;;;;;11.00;7.75;;;;;;;15.90;90.75;101239.19;5029451;28;20044;-70
2023/10/11 07:59:08;;;;;;;12.68;7.55;;;;;;;16.02;90.31;101240.19;5032401;28;20044;-69
2023/10/11 08:01:42;;;;;;;10.13;7.43;;;;;;;16.10;89.47;101238.69;5038359;28;20079;-69
2023/10/11 08:04:21;;;;;;;10.90;7.75;;;;;;;16.15;88.25;101222.28;5042509;28;20108;-69
2023/10/11 08:06:47;;;;;;;13.35;8.38;;;;;;;16.29;88.89;101232.06;5036628;28;20067;-69
2023/10/11 08:09:19;;;;;;;10.25;7.63;;;;;;;16.42;87.79;101230.25;5035906;28;20056;-69
2023/10/11 08:11:54;;;;;;;11.38;7.90;;;;;;;16.49;87.61;101231.53;5041156;28;20033;-69
2023/10/11 08:14:22;;;;;;;10.10;6.65;;;;;;;16.66;87.08;101222.31;5030630;28;20029;-69
2023/10/11 08:16:52;;;;;;;11.05;7.50;;;;;;;16.79;85.96;101216.94;5039178;28;20033;-69
2023/10/11 08:19:18;;;;;;;15.13;8.40;;;;;;;16.95;85.75;101222.97;5039649;28;20032;-69
2023/10/11 08:21:57;;;;;;;13.15;7.93;;;;;;;17.07;84.75;101219.41;5040784;28;20047;-67
2023/10/11 08:24:27;;;;;;;12.30;7.65;;;;;;;17.19;84.96;101223.03;5066076;28;20029;-68
2023/10/11 08:26:54;;;;;;;12.27;7.88;;;;;;;17.36;83.47;101222.66;5041556;28;20045;-69
2023/10/11 08:29:29;;;;;;;23.92;8.52;;;;;;;17.51;82.70;101228.72;5037741;28;20658;-69
2023/10/11 08:31:57;;;;;;;11.80;7.40;;;;;;;17.74;83.36;101235.13;5042963;28;20439;-68
2023/10/11 08:34:28;;;;;;;12.75;7.05;;;;;;;17.97;82.06;101238.78;5034021;28;21289;-70
2023/10/11 08:36:54;;;;;;;12.80;7.53;;;;;;;18.01;80.63;101228.63;5034549;28;20530;-68
2023/10/11 08:39:26;;;;;;;33.03;9.75;;;;;;;18.03;81.53;101237.47;5032299;28;20442;-67
2023/10/11 08:41:58;;;;;;;15.20;8.15;;;;;;;18.07;81.39;101244.34;5039861;28;20068;-68
2023/10/11 08:44:28;;;;;;;14.60;7.85;;;;;;;18.10;82.00;101244.09;5035748;28;20410;-68
2023/10/11 08:46:54;;;;;;;9.82;7.53;;;;;;;18.18;81.69;101247.06;5031616;28;20036;-68
2023/10/11 08:49:19;;;;;;;11.65;7.88;;;;;;;18.12;80.86;101243.00;5038409;28;20056;-69
2023/10/11 08:51:45;;;;;;;11.88;7.30;;;;;;;18.17;81.18;101232.75;5038224;28;20431;-68
2023/10/11 08:54:12;;;;;;;11.70;7.93;;;;;;;18.32;81.25;101233.41;5037950;28;20037;-68
2023/10/11 08:56:54;;;;;;;12.57;7.32;;;;;;;18.51;79.98;101232.81;5036022;28;20411;-67
2023/10/11 08:59:24;;;;;;;15.77;9.63;;;;;;;19.03;78.22;101244.94;5040319;28;20067;-67
2023/10/11 09:01:52;;;;;;;14.13;8.13;;;;;;;19.73;75.85;101235.66;5033799;28;20072;-67
2023/10/11 09:04:17;;;;;;;11.75;7.13;;;;;;;20.09;72.34;101244.34;5036291;28;20028;-68
2023/10/11 09:06:44;;;;;;;11.40;7.35;;;;;;;19.85;72.91;101237.31;5040448;28;20040;-67
2023/10/11 09:09:36;;;;;;;15.68;8.50;;;;;;;19.55;74.96;101240.69;5040938;28;20240;-68
2023/10/11 09:12:22;;;;;;;12.75;8.02;;;;;;;19.65;74.86;101252.50;5044196;28;20268;-68
2023/10/11 09:15:00;;;;;;;11.05;7.40;;;;;;;20.46;74.17;101258.28;5030800;28;20490;-68
2023/10/11 09:17:27;;;;;;;13.68;9.20;;;;;;;21.30;68.69;101263.59;5035242;28;20032;-69
2023/10/11 09:19:56;;;;;;;12.80;7.05;;;;;;;21.93;66.22;101263.31;5037385;28;20025;-69
2023/10/11 09:22:22;;;;;;;13.07;7.93;;;;;;;21.94;65.03;101262.31;5036050;28;20024;-69
2023/10/11 09:25:03;;;;;;;13.30;8.20;;;;;;;21.18;68.36;101259.25;5036905;28;20037;-68
2023/10/11 09:27:42;;;;;;;13.98;9.07;;;;;;;20.40;71.25;101262.38;5036265;28;20028;-68
2023/10/11 09:30:19;;;;;;;12.73;8.63;;;;;;;20.39;71.65;101257.09;5037145;28;20052;-69
2023/10/11 09:32:48;;;;;;;12.00;8.15;;;;;;;20.85;69.69;101256.69;5040207;28;20115;-68
2023/10/11 09:35:29;;;;;;;14.85;8.48;;;;;;;22.13;66.96;101257.78;5039670;28;20028;-68
2023/10/11 09:37:59;;;;;;;13.63;7.97;;;;;;;23.15;62.31;101248.16;5039701;28;20115;-70
2023/10/11 09:40:36;;;;;;;12.05;7.57;;;;;;;23.68;60.31;101263.78;5037748;28;20138;-69
2023/10/11 09:43:02;;;;;;;12.32;8.60;;;;;;;23.21;60.61;101250.28;5036234;28;20591;-70
2023/10/11 09:45:53;;;;;;;12.40;8.68;;;;;;;22.56;63.40;101274.59;5039606;28;20027;-68
2023/10/11 09:48:22;;;;;;;15.57;9.18;;;;;;;21.81;65.59;101279.69;5039089;28;20040;-68
2023/10/11 09:50:47;;;;;;;13.00;8.10;;;;;;;21.22;67.96;101287.78;5044510;28;20037;-68
2023/10/11 09:53:14;;;;;;;13.05;9.20;;;;;;;20.71;70.64;101286.81;5036199;28;20031;-69
2023/10/11 09:55:58;;;;;;;12.95;9.40;;;;;;;20.31;73.17;101273.94;5038018;28;20025;-69
2023/10/11 09:58:29;;;;;;;15.07;9.48;;;;;;;20.09;75.71;101290.28;5041758;28;20032;-69
2023/10/11 10:01:18;;;;;;;13.07;9.13;;;;;;;20.04;76.06;101285.25;5038992;28;20032;-69
2023/10/11 10:03:47;;;;;;;14.63;9.27;;;;;;;19.79;77.24;101280.19;5035872;28;20064;-69
2023/10/11 10:06:21;;;;;;;12.38;9.50;;;;;;;19.81;77.69;101279.06;5038094;28;20020;-68
2023/10/11 10:09:23;;;;;;;12.80;9.18;;;;;;;19.88;78.57;101285.69;5038698;28;20567;-67
2023/10/11 10:12:09;;;;;;;13.40;10.20;;;;;;;19.97;79.16;101275.94;5034219;28;20300;-67
2023/10/11 10:14:41;;;;;;;14.43;10.57;;;;;;;19.66;80.88;101277.66;5037428;28;20064;-67
2023/10/11 10:17:10;;;;;;;15.35;11.02;;;;;;;19.47;82.49;101275.53;5039784;28;20079;-67
2023/10/11 10:19:40;;;;;;;12.80;11.05;;;;;;;19.68;82.96;101283.75;5032814;28;20029;-68
2023/10/11 10:22:27;;;;;;;12.57;9.80;;;;;;;19.60;83.04;101294.28;5030687;28;20021;-68
2023/10/11 10:24:57;;;;;;;14.60;10.15;;;;;;;19.62;83.09;101286.97;5034789;28;20041;-68
2023/10/11 10:27:33;;;;;;;14.63;10.70;;;;;;;19.52;84.12;101294.06;5040801;28;20029;-67
2023/10/11 10:30:00;;;;;;;14.75;11.55;;;;;;;19.72;84.03;101304.13;5036295;28;20043;-68
2023/10/11 10:32:27;;;;;;;13.57;11.38;;;;;;;19.73;83.60;101302.28;5040036;28;20051;-68
2023/10/11 10:35:20;;;;;;;14.10;10.60;;;;;;;20.02;82.96;101300.75;5067698;28;20267;-68
2023/10/11 10:37:46;;;;;;;14.55;11.55;;;;;;;20.06;82.27;101301.34;5035646;28;20056;-67
2023/10/11 10:40:37;;;;;;;15.15;11.95;;;;;;;19.84;83.55;101296.88;5041508;28;20044;-68
2023/10/11 10:43:19;;;;;;;17.52;11.63;;;;;;;19.78;83.52;101300.94;5038938;28;20257;-68
2023/10/11 10:45:59;;;;;;;13.52;11.50;;;;;;;19.72;84.13;101296.03;5039538;28;20123;-69
2023/10/11 10:48:25;;;;;;;15.82;13.50;;;;;;;19.57;84.59;101297.28;5035988;28;20021;-68
2023/10/11 10:51:01;;;;;;;18.83;13.52;;;;;;;19.28;85.80;101289.69;5037995;28;20336;-67
2023/10/11 10:53:50;;;;;;;16.40;13.13;;;;;;;19.62;85.39;101281.59;5033675;28;20083;-69
2023/10/11 10:56:25;;;;;;;18.73;12.98;;;;;;;20.74;81.31;101280.28;5033886;28;20025;-69
2023/10/11 10:59:07;;;;;;;16.13;12.88;;;;;;;21.53;76.80;101275.09;5036234;28;20037;-70
2023/10/11 11:01:36;;;;;;;17.23;12.75;;;;;;;21.50;74.93;101286.19;5039764;28;20487;-71
2023/10/11 11:04:07;;;;;;;17.48;12.85;;;;;;;21.19;75.76;101271.78;5029764;28;20033;-71
2023/10/11 11:06:40;;;;;;;18.05;13.35;;;;;;;21.15;76.66;101292.84;5035974;28;20029;-70
2023/10/11 11:09:13;;;;;;;16.13;13.13;;;;;;;20.80;77.33;101294.13;5038041;28;20033;-70
2023/10/11 11:11:39;;;;;;;14.68;11.88;;;;;;;20.34;79.49;101280.94;5034538;28;20040;-71
2023/10/11 11:14:13;;;;;;;15.48;12.75;;;;;;;20.18;81.57;101280.53;5039341;28;20021;-70
2023/10/11 11:16:44;;;;;;;14.32;11.93;;;;;;;20.24;81.66;101282.75;5033745;28;20489;-69
2023/10/11 11:19:17;;;;;;;16.65;12.27;;;;;;;20.16;81.17;101277.97;5034139;28;20040;-69
2023/10/11 11:21:46;;;;;;;16.98;11.73;;;;;;;20.29;80.93;101273.25;5034246;28;20577;-68
2023/10/11 11:24:27;;;;;;;17.13;11.90;;;;;;;20.94;79.48;101264.97;5038393;28;20151;-69
2023/10/11 11:26:53;;;;;;;14.27;11.63;;;;;;;21.93;74.20;101261.47;5033761;28;20025;-69
2023/10/11 11:29:31;;;;;;;17.92;11.63;;;;;;;21.78;73.79;101250.19;5036205;28;20055;-70
2023/10/11 11:32:07;;;;;;;15.02;11.50;;;;;;;21.33;74.49;101244.41;5034296;28;20051;-70
2023/10/11 11:34:37;;;;;;;14.63;11.23;;;;;;;22.04;72.69;101247.78;5034445;28;20314;-70
2023/10/11 11:37:07;;;;;;;15.50;11.35;;;;;;;22.25;70.52;101244.94;5035841;28;20471;-71
2023/10/11 11:42:07;;;;;;;14.50;10.60;;;;;;;21.97;72.09;101254.75;5037515;28;20056;-69
2023/10/11 11:44:33;;;;;;;14.02;10.95;;;;;;;22.19;71.35;101240.09;5036839;28;20372;-70
2023/10/11 11:47:05;;;;;;;17.92;11.75;;;;;;;22.26;70.24;101224.97;5042819;28;20056;-68
2023/10/11 11:49:33;;;;;;;16.50;11.13;;;;;;;22.57;69.42;101225.63;5037099;28;20179;-69
2023/10/11 11:51:59;;;;;;;15.45;11.02;;;;;;;23.42;65.99;101222.88;5042390;28;20090;-69
2023/10/11 11:54:31;;;;;;;15.35;11.00;;;;;;;24.20;62.98;101209.53;5047213;28;20029;-71
2023/10/11 11:56:59;;;;;;;13.13;10.23;;;;;;;25.44;58.44;101205.53;5041328;28;20032;-71
2023/10/11 11:59:29;;;;;;;14.27;10.68;;;;;;;26.02;55.79;101196.44;5045315;28;20055;-70
2023/10/11 12:01:59;;;;;;;10.25;8.80;;;;;;;26.92;53.42;101188.13;5045771;28;20032;-71
2023/10/11 12:04:29;;;;;;;12.95;9.63;;;;;;;27.54;51.31;101188.16;5044076;28;20093;-70
2023/10/11 12:07:09;;;;;;;13.25;9.75;;;;;;;28.21;50.33;101195.72;5038481;28;20119;-70
2023/10/11 12:09:36;;;;;;;11.98;9.00;;;;;;;28.25;48.54;101197.03;5043337;28;20144;-70
2023/10/11 12:12:04;;;;;;;12.07;8.70;;;;;;;28.86;47.63;101207.09;5044194;28;20083;-70
2023/10/11 12:14:31;;;;;;;11.98;8.98;;;;;;;28.91;46.49;101194.50;5038956;28;20120;-72
2023/10/11 12:16:58;;;;;;;12.07;8.50;;;;;;;28.96;46.39;101193.94;5042333;28;20102;-71
2023/10/11 12:19:24;;;;;;;14.10;8.50;;;;;;;28.82;46.10;101186.59;5046079;28;20029;-72
2023/10/11 12:21:56;;;;;;;13.40;9.00;;;;;;;28.17;46.68;101188.06;5039872;28;20047;-71
2023/10/11 12:24:24;;;;;;;13.90;9.37;;;;;;;27.39;49.23;101168.13;5040459;28;20088;-69
2023/10/11 12:26:49;;;;;;;14.43;9.77;;;;;;;27.21;49.67;101175.72;5042413;28;20035;-70
2023/10/11 12:29:14;;;;;;;11.60;8.77;;;;;;;27.18;50.08;101168.75;5050352;28;20012;-70
2023/10/11 12:31:41;;;;;;;12.52;8.82;;;;;;;27.88;48.40;101161.47;5038652;28;20065;-71
2023/10/11 12:34:09;;;;;;;14.30;8.73;;;;;;;27.87;47.74;101149.69;5037499;28;20333;-69
2023/10/11 12:36:39;;;;;;;11.65;8.50;;;;;;;27.45;48.57;101147.41;5041666;28;20112;-71
2023/10/11 12:39:20;;;;;;;15.40;9.00;;;;;;;27.26;49.30;101156.94;5039932;28;20040;-71
2023/10/11 12:41:48;;;;;;;10.45;9.23;;;;;;;27.60;49.11;101158.41;5047390;28;20053;-71